createdAt,value
2019-02-21T00:00:54.793Z,22.20
2019-02-21T00:03:23.213Z,24.52
2019-02-21T00:05:51.512Z,20.88
2019-02-21T00:08:19.858Z,23.18
2019-02-21T00:10:48.160Z,23.90
2019-02-21T00:13:16.461Z,20.45
2019-02-21T00:15:44.749Z,25.35
2019-02-21T00:18:13.365Z,25.80
2019-02-21T00:20:41.658Z,23.20
2019-02-21T00:23:09.961Z,23.60
2019-02-21T00:25:38.606Z,27.07
2019-02-21T00:28:06.908Z,27.15
2019-02-21T00:30:35.681Z,21.82
2019-02-21T00:33:03.970Z,21.45
2019-02-21T00:35:32.295Z,24.52
2019-02-21T00:38:00.590Z,28.30
2019-02-21T00:40:28.937Z,22.77
2019-02-21T00:42:57.238Z,23.15
2019-02-21T00:45:25.553Z,23.98
2019-02-21T00:47:54.097Z,24.15
2019-02-21T00:50:22.412Z,23.33
2019-02-21T00:52:50.701Z,27.40
2019-02-21T00:55:19.352Z,25.08
2019-02-21T00:57:47.641Z,25.08
2019-02-21T01:00:15.952Z,28.67
2019-02-21T01:02:44.250Z,25.35
2019-02-21T01:05:12.538Z,24.57
2019-02-21T01:07:41.138Z,27.15
2019-02-21T01:10:09.509Z,25.15
2019-02-21T01:12:37.818Z,27.62
2019-02-21T01:15:08.690Z,27.40
2019-02-21T01:17:36.999Z,26.73
2019-02-21T01:20:06.266Z,27.25
2019-02-21T01:22:34.902Z,29.52
2019-02-21T01:25:03.192Z,29.20
2019-02-21T01:27:31.851Z,28.45
2019-02-21T01:30:00.258Z,25.70
2019-02-21T01:32:29.119Z,24.47
2019-02-21T01:34:57.440Z,26.45
2019-02-21T01:37:25.808Z,26.00
2019-02-21T01:39:54.473Z,28.15
2019-02-21T01:42:22.871Z,26.25
2019-02-21T01:44:51.180Z,28.15
2019-02-21T01:47:19.907Z,24.15
2019-02-21T01:49:48.222Z,31.23
2019-02-21T01:52:16.547Z,25.30
2019-02-21T01:54:44.863Z,25.57
2019-02-21T01:57:13.423Z,26.87
2019-02-21T01:59:41.836Z,30.52
2019-02-21T02:02:10.203Z,27.93
2019-02-21T02:04:38.601Z,22.90
2019-02-21T02:07:06.906Z,25.35
2019-02-21T02:09:35.524Z,26.52
2019-02-21T02:12:03.818Z,26.03
2019-02-21T02:14:32.233Z,28.15
2019-02-21T02:17:00.524Z,28.25
2019-02-21T02:19:28.831Z,28.02
2019-02-21T02:21:57.409Z,25.70
2019-02-21T02:24:25.702Z,25.48
2019-02-21T02:26:54.376Z,26.00
2019-02-21T02:29:22.956Z,30.32
2019-02-21T02:31:51.269Z,26.80
2019-02-21T02:34:19.600Z,26.52
2019-02-21T02:36:47.893Z,24.77
2019-02-21T02:39:16.197Z,29.67
2019-02-21T02:41:44.502Z,26.50
2019-02-21T02:44:12.803Z,26.68
2019-02-21T02:46:41.240Z,25.32
2019-02-21T02:49:09.491Z,25.12
2019-02-21T02:51:37.829Z,28.90
2019-02-21T02:54:06.435Z,26.37
2019-02-21T02:56:34.744Z,27.73
2019-02-21T02:59:03.108Z,24.25
2019-02-21T03:01:35.102Z,31.37
2019-02-21T03:04:02.356Z,30.70
2019-02-21T03:06:30.907Z,30.80
2019-02-21T03:08:59.206Z,30.05
2019-02-21T03:11:27.516Z,27.82
2019-02-21T03:13:55.837Z,28.52
2019-02-21T03:16:24.148Z,29.32
2019-02-21T03:18:52.824Z,24.80
2019-02-21T03:21:21.391Z,32.15
2019-02-21T03:23:49.684Z,30.77
2019-02-21T03:26:17.992Z,30.17
2019-02-21T03:28:46.292Z,31.73
2019-02-21T03:31:14.619Z,30.92
2019-02-21T03:33:42.914Z,30.77
2019-02-21T03:36:11.232Z,29.30
2019-02-21T03:38:39.765Z,32.08
2019-02-21T03:41:08.091Z,33.10
2019-02-21T03:43:36.387Z,30.37
2019-02-21T03:46:04.717Z,31.10
2019-02-21T03:48:33.013Z,29.92
2019-02-21T03:51:01.315Z,29.90
2019-02-21T03:53:29.715Z,33.02
2019-02-21T03:55:58.040Z,29.30
2019-02-21T03:58:26.702Z,30.82
2019-02-21T04:00:55.619Z,30.88
2019-02-21T04:03:23.927Z,31.27
2019-02-21T04:05:52.233Z,30.43
2019-02-21T04:08:20.534Z,30.40
2019-02-21T04:10:48.856Z,35.52
2019-02-21T04:13:17.156Z,34.35
2019-02-21T04:15:45.472Z,33.38
2019-02-21T04:18:13.770Z,32.75
2019-02-21T04:20:42.070Z,32.28
2019-02-21T04:23:10.409Z,33.50
2019-02-21T04:25:38.695Z,33.60
2019-02-21T04:28:08.100Z,30.55
2019-02-21T04:30:36.405Z,30.85
2019-02-21T04:33:04.969Z,31.37
2019-02-21T04:35:33.368Z,32.60
2019-02-21T04:38:02.028Z,34.10
2019-02-21T04:40:30.338Z,34.65
2019-02-21T04:42:58.978Z,32.23
2019-02-21T04:45:27.280Z,34.30
2019-02-21T04:47:55.692Z,33.95
2019-02-21T04:50:23.994Z,31.65
2019-02-21T04:52:52.385Z,35.20
2019-02-21T04:55:20.691Z,30.77
2019-02-21T04:57:49.000Z,29.95
2019-02-21T05:00:17.308Z,29.80
2019-02-21T05:02:46.548Z,38.15
2019-02-21T05:05:14.864Z,29.80
2019-02-21T05:07:43.172Z,30.30
2019-02-21T05:10:11.505Z,31.33
2019-02-21T05:12:39.809Z,29.57
2019-02-21T05:15:08.124Z,29.82
2019-02-21T05:17:36.437Z,31.73
2019-02-21T05:20:05.723Z,29.25
2019-02-21T05:22:34.022Z,31.25
2019-02-21T05:25:02.342Z,31.70
2019-02-21T05:27:32.277Z,30.55
2019-02-21T05:30:00.620Z,29.27
2019-02-21T05:32:41.069Z,30.20
2019-02-21T05:35:05.218Z,30.12
2019-02-21T05:37:35.185Z,33.13
2019-02-21T05:40:05.143Z,31.87
2019-02-21T05:42:51.525Z,31.20
2019-02-21T05:45:24.284Z,32.53
2019-02-21T05:47:54.236Z,30.12
2019-02-21T05:50:24.526Z,31.55
2019-02-21T05:53:03.239Z,28.53
2019-02-21T05:55:49.767Z,31.12
2019-02-21T05:58:28.997Z,28.90
2019-02-21T06:01:08.288Z,32.50
2019-02-21T06:03:38.224Z,32.30
2019-02-21T06:06:10.865Z,98.43
2019-02-21T06:08:41.149Z,34.27
2019-02-21T06:11:23.058Z,34.08
2019-02-21T06:13:52.969Z,32.08
2019-02-21T06:16:40.773Z,33.10
2019-02-21T06:19:10.887Z,32.80
2019-02-21T06:21:41.128Z,33.17
2019-02-21T06:24:27.424Z,30.02
2019-02-21T06:26:57.374Z,32.08
2019-02-21T06:29:27.325Z,31.35
2019-02-21T06:31:55.621Z,36.70
2019-02-21T06:34:23.946Z,34.00
2019-02-21T06:36:52.237Z,33.13
2019-02-21T06:39:20.552Z,32.65
2019-02-21T06:41:59.065Z,32.60
2019-02-21T06:44:19.248Z,33.40
2019-02-21T06:46:47.859Z,33.35
2019-02-21T06:49:16.179Z,35.35
2019-02-21T06:51:44.470Z,35.67
2019-02-21T06:54:12.779Z,33.95
2019-02-21T06:56:41.086Z,35.55
2019-02-21T06:59:09.763Z,38.65
2019-02-21T07:01:38.431Z,35.48
2019-02-21T07:04:07.012Z,36.28
2019-02-21T07:06:35.315Z,40.20
2019-02-21T07:09:04.601Z,41.60
2019-02-21T07:11:32.996Z,33.05
2019-02-21T07:14:01.292Z,37.15
2019-02-21T07:16:29.615Z,34.27
2019-02-21T07:18:57.913Z,37.73
2019-02-21T07:21:26.327Z,37.45
2019-02-21T07:23:54.645Z,36.28
2019-02-21T07:26:23.940Z,40.25
2019-02-21T07:28:52.233Z,44.53
2019-02-21T07:31:28.948Z,40.58
2019-02-21T07:33:50.669Z,38.98
2019-02-21T07:36:18.963Z,41.15
2019-02-21T07:38:47.801Z,41.95
2019-02-21T07:41:18.542Z,39.92
2019-02-21T07:43:46.395Z,42.27
2019-02-21T07:46:14.718Z,46.65
2019-02-21T07:48:43.023Z,42.30
2019-02-21T07:51:13.382Z,44.27
2019-02-21T07:53:41.649Z,44.75
2019-02-21T07:56:09.970Z,41.92
2019-02-21T07:58:39.658Z,44.08
2019-02-21T08:01:08.098Z,42.65
2019-02-21T08:03:44.497Z,43.45
2019-02-21T08:06:07.021Z,43.90
2019-02-21T08:08:35.336Z,43.13
2019-02-21T08:11:03.618Z,47.70
2019-02-21T08:13:31.923Z,44.60
2019-02-21T08:16:00.287Z,41.75
2019-02-21T08:18:28.584Z,41.92
2019-02-21T08:20:57.036Z,43.90
2019-02-21T08:23:25.384Z,44.40
2019-02-21T08:25:54.058Z,44.70
2019-02-21T08:28:22.464Z,46.65
2019-02-21T08:30:50.772Z,44.95
2019-02-21T08:33:20.699Z,42.70
2019-02-21T08:35:49.015Z,48.55
2019-02-21T08:38:17.308Z,43.73
2019-02-21T08:40:45.601Z,47.73
2019-02-21T08:43:13.975Z,41.63
2019-02-21T08:45:42.289Z,42.85
2019-02-21T08:48:13.291Z,46.70
2019-02-21T08:50:40.925Z,41.28
2019-02-21T08:53:09.408Z,46.33
2019-02-21T08:55:40.374Z,44.40
2019-02-21T08:58:08.143Z,44.85
2019-02-21T09:00:36.428Z,47.60
2019-02-21T09:03:04.919Z,45.63
2019-02-21T09:05:33.253Z,45.60
2019-02-21T09:08:01.577Z,52.00
2019-02-21T09:10:29.877Z,47.93
2019-02-21T09:12:58.199Z,46.45
2019-02-21T09:15:26.853Z,45.03
2019-02-21T09:17:55.189Z,48.08
2019-02-21T09:20:23.499Z,46.97
2019-02-21T09:22:51.810Z,47.23
2019-02-21T09:25:20.117Z,43.92
2019-02-21T09:27:48.735Z,46.73
2019-02-21T09:30:18.581Z,45.52
2019-02-21T09:32:47.240Z,46.55
2019-02-21T09:35:15.579Z,45.83
2019-02-21T09:37:43.932Z,46.53
2019-02-21T09:40:14.699Z,44.75
2019-02-21T09:42:43.034Z,44.50
2019-02-21T09:45:16.290Z,46.50
2019-02-21T09:47:44.583Z,50.28
2019-02-21T09:50:13.141Z,46.95
2019-02-21T09:52:41.446Z,49.65
2019-02-21T09:55:12.456Z,52.03
2019-02-21T09:57:40.766Z,48.25
2019-02-21T10:00:12.256Z,50.43
2019-02-21T10:02:42.088Z,47.93
2019-02-21T10:05:10.816Z,43.85
2019-02-21T10:07:39.157Z,50.78
2019-02-21T10:10:10.792Z,51.63
2019-02-21T10:12:39.133Z,51.02
2019-02-21T10:15:09.882Z,49.43
2019-02-21T10:17:38.200Z,48.33
2019-02-21T10:20:20.945Z,55.38
2019-02-21T10:22:49.656Z,49.47
2019-02-21T10:25:23.168Z,50.55
2019-02-21T10:27:51.010Z,51.05
2019-02-21T10:30:21.429Z,49.35
2019-02-21T10:32:50.119Z,48.35
2019-02-21T10:35:18.544Z,52.05
2019-02-21T10:37:46.909Z,51.30
2019-02-21T10:40:15.960Z,52.30
2019-02-21T10:42:44.557Z,55.92
2019-02-21T10:45:18.012Z,51.55
2019-02-21T10:47:46.302Z,56.40
2019-02-21T10:50:19.800Z,54.77
2019-02-21T10:52:48.698Z,49.55
2019-02-21T10:55:17.859Z,53.23
2019-02-21T10:57:46.344Z,52.73
2019-02-21T11:00:23.063Z,51.73
2019-02-21T11:02:51.444Z,48.05
2019-02-21T11:05:19.760Z,49.37
2019-02-21T11:07:48.068Z,55.55
2019-02-21T11:10:20.053Z,48.83
2019-02-21T11:12:48.389Z,52.60
2019-02-21T11:15:18.725Z,49.77
2019-02-21T11:17:47.059Z,46.53
2019-02-21T11:20:19.077Z,47.15
2019-02-21T11:22:47.679Z,46.90
2019-02-21T11:25:16.000Z,50.60
2019-02-21T11:27:44.385Z,42.38
2019-02-21T11:30:17.616Z,46.30
2019-02-21T11:32:46.014Z,46.57
2019-02-21T11:35:14.628Z,47.93
2019-02-21T11:37:46.764Z,49.70
2019-02-21T11:40:15.650Z,51.28
2019-02-21T11:42:44.611Z,43.30
2019-02-21T11:45:15.214Z,42.55
2019-02-21T11:47:44.211Z,43.55
2019-02-21T11:50:17.914Z,40.50
2019-02-21T11:52:46.241Z,42.25
2019-02-21T11:55:22.471Z,41.05
2019-02-21T11:57:50.986Z,39.83
2019-02-21T12:00:24.626Z,44.50
2019-02-21T12:02:53.185Z,36.53
2019-02-21T12:05:30.366Z,35.63
2019-02-21T12:07:51.617Z,38.13
2019-02-21T12:10:19.944Z,37.98
2019-02-21T12:12:48.253Z,34.78
2019-02-21T12:15:17.529Z,35.88
2019-02-21T12:17:45.857Z,33.35
2019-02-21T12:20:16.209Z,42.17
2019-02-21T12:22:44.526Z,33.65
2019-02-21T12:25:15.071Z,33.98
2019-02-21T12:27:43.369Z,38.33
2019-02-21T12:30:18.751Z,34.03
2019-02-21T12:32:47.124Z,37.88
2019-02-21T12:35:15.527Z,32.65
2019-02-21T12:37:43.831Z,30.77
2019-02-21T12:40:22.585Z,33.70
2019-02-21T12:42:50.887Z,25.23
2019-02-21T12:45:26.393Z,26.65
2019-02-21T12:47:55.022Z,32.30
2019-02-21T12:50:23.335Z,28.20
2019-02-21T12:52:51.658Z,26.68
2019-02-21T12:55:28.224Z,30.45
2019-02-21T12:57:50.011Z,29.07
2019-02-21T13:00:22.351Z,31.37
2019-02-21T13:02:50.681Z,27.10
2019-02-21T13:05:19.061Z,24.70
2019-02-21T13:07:47.382Z,26.40
2019-02-21T13:10:21.856Z,27.02
2019-02-21T13:12:50.181Z,21.70
2019-02-21T13:15:18.481Z,25.75
2019-02-21T13:17:46.829Z,27.58
2019-02-21T13:20:15.468Z,24.90
2019-02-21T13:22:43.760Z,23.60
2019-02-21T13:25:14.613Z,19.13
2019-02-21T13:27:42.913Z,23.15
2019-02-21T13:30:18.793Z,29.63
2019-02-21T13:32:47.102Z,25.77
2019-02-21T13:35:15.423Z,21.90
2019-02-21T13:37:43.818Z,25.62
2019-02-21T13:40:14.852Z,21.40
2019-02-21T13:42:43.144Z,21.62
2019-02-21T13:45:18.013Z,22.80
2019-02-21T13:47:46.744Z,24.47
2019-02-21T13:50:23.721Z,25.55
2019-02-21T13:52:51.409Z,25.72
2019-02-21T13:55:19.787Z,22.65
2019-02-21T13:57:48.103Z,26.15
2019-02-21T14:00:24.070Z,23.77
2019-02-21T14:02:52.396Z,22.27
2019-02-21T14:05:20.699Z,25.43
2019-02-21T14:07:49.077Z,25.20
2019-02-21T14:10:17.543Z,24.18
2019-02-21T14:12:46.029Z,24.63
2019-02-21T14:15:17.527Z,26.57
2019-02-21T14:17:46.758Z,23.80
2019-02-21T14:20:15.464Z,24.27
2019-02-21T14:22:43.787Z,20.55
2019-02-21T14:25:12.497Z,25.17
2019-02-21T14:27:40.802Z,22.80
2019-02-21T14:30:18.174Z,26.12
2019-02-21T14:32:46.483Z,26.33
2019-02-21T14:35:15.568Z,22.32
2019-02-21T14:37:43.946Z,28.35
2019-02-21T14:40:13.643Z,24.77
2019-02-21T14:42:41.959Z,21.80
2019-02-21T14:45:13.660Z,20.70
2019-02-21T14:47:42.023Z,21.68
2019-02-21T14:50:11.881Z,24.70
2019-02-21T14:52:40.337Z,22.67
2019-02-21T14:55:11.016Z,22.45
2019-02-21T14:57:41.217Z,24.82
2019-02-21T15:00:23.676Z,20.75
2019-02-21T15:02:51.977Z,18.10
2019-02-21T15:05:20.786Z,19.80
2019-02-21T15:07:49.171Z,16.90
2019-02-21T15:10:17.752Z,19.27
2019-02-21T15:12:46.383Z,19.60
2019-02-21T15:15:25.503Z,13.78
2019-02-21T15:17:53.845Z,13.57
2019-02-21T15:20:22.500Z,16.10
2019-02-21T15:22:50.789Z,16.77
2019-02-21T15:25:19.109Z,17.25
2019-02-21T15:27:47.429Z,14.33
2019-02-21T15:30:21.525Z,16.10
2019-02-21T15:32:50.021Z,17.30
2019-02-21T15:35:19.507Z,18.55
2019-02-21T15:37:48.233Z,22.93
2019-02-21T15:40:16.582Z,18.15
2019-02-21T15:42:45.159Z,16.73
2019-02-21T15:45:23.099Z,23.60
2019-02-21T15:47:46.472Z,23.55
2019-02-21T15:50:15.393Z,21.73
2019-02-21T15:52:45.037Z,19.00
2019-02-21T15:55:15.593Z,16.65
2019-02-21T15:57:43.953Z,24.57
2019-02-21T16:00:15.281Z,24.67
2019-02-21T16:02:43.591Z,24.45
2019-02-21T16:05:11.957Z,22.50
2019-02-21T16:07:40.278Z,21.20
2019-02-21T16:10:19.795Z,20.92
2019-02-21T16:12:48.662Z,21.05
2019-02-21T16:15:17.141Z,21.15
2019-02-21T16:17:45.488Z,19.67
2019-02-21T16:20:16.233Z,22.37
2019-02-21T16:22:44.837Z,20.50
2019-02-21T16:25:22.269Z,25.10
2019-02-21T16:27:50.608Z,22.50
2019-02-21T16:30:18.906Z,24.50
2019-02-21T16:32:47.312Z,29.87
2019-02-21T16:35:15.653Z,24.05
2019-02-21T16:37:44.302Z,23.02
2019-02-21T16:40:14.958Z,20.43
2019-02-21T16:42:43.304Z,25.32
2019-02-21T16:45:13.854Z,22.02
2019-02-21T16:47:42.250Z,27.52
2019-02-21T16:50:14.891Z,25.40
2019-02-21T16:52:43.479Z,23.25
2019-02-21T16:55:21.821Z,23.38
2019-02-21T16:57:50.151Z,24.32
2019-02-21T17:00:21.127Z,28.95
2019-02-21T17:02:52.130Z,26.50
2019-02-21T17:05:20.582Z,25.55
2019-02-21T17:07:49.213Z,25.70
2019-02-21T17:10:18.240Z,30.62
2019-02-21T17:12:46.531Z,25.27
2019-02-21T17:15:18.508Z,26.42
2019-02-21T17:17:46.800Z,24.95
2019-02-21T17:20:23.161Z,23.75
2019-02-21T17:22:51.461Z,24.87
2019-02-21T17:25:19.801Z,26.30
2019-02-21T17:27:49.723Z,25.72
2019-02-21T17:30:18.605Z,25.82
2019-02-21T17:32:47.253Z,26.20
2019-02-21T17:35:16.009Z,29.45
2019-02-21T17:37:44.710Z,27.05
2019-02-21T17:40:24.232Z,29.57
2019-02-21T17:42:52.835Z,29.85
2019-02-21T17:45:21.608Z,35.50
2019-02-21T17:47:49.917Z,33.67
2019-02-21T17:50:19.167Z,31.52
2019-02-21T17:52:47.989Z,33.70
2019-02-21T17:55:17.094Z,32.13
2019-02-21T17:57:45.419Z,31.45
2019-02-21T18:00:21.018Z,29.75
2019-02-21T18:02:49.341Z,35.10
2019-02-21T18:05:17.979Z,33.85
2019-02-21T18:07:46.261Z,38.67
2019-02-21T18:10:15.905Z,33.90
2019-02-21T18:12:44.355Z,37.38
2019-02-21T18:15:14.326Z,35.57
2019-02-21T18:17:42.627Z,37.60
2019-02-21T18:20:12.947Z,37.90
2019-02-21T18:22:41.337Z,38.63
2019-02-21T18:25:18.828Z,38.48
2019-02-21T18:27:47.133Z,34.92
2019-02-21T18:30:17.249Z,34.33
2019-02-21T18:32:45.642Z,37.42
2019-02-21T18:35:14.237Z,33.30
2019-02-21T18:37:47.334Z,32.73
2019-02-21T18:40:20.644Z,34.47
2019-02-21T18:42:48.459Z,39.30
2019-02-21T18:45:16.781Z,35.83
2019-02-21T18:47:45.078Z,35.55
2019-02-21T18:50:14.516Z,34.47
2019-02-21T18:52:42.839Z,34.85
2019-02-21T18:55:11.314Z,39.78
2019-02-21T18:57:39.714Z,35.75
2019-02-21T19:00:11.076Z,39.73
2019-02-21T19:02:39.390Z,39.83
2019-02-21T19:05:08.757Z,34.70
2019-02-21T19:07:37.063Z,43.40
2019-02-21T19:10:08.780Z,38.78
2019-02-21T19:12:37.109Z,34.92
2019-02-21T19:15:07.460Z,36.25
2019-02-21T19:17:35.790Z,37.50
2019-02-21T19:20:06.217Z,36.03
2019-02-21T19:22:34.785Z,35.70
2019-02-21T19:25:03.376Z,38.90
2019-02-21T19:27:37.039Z,37.30
2019-02-21T19:30:02.272Z,38.65
2019-02-21T19:32:30.584Z,32.67
2019-02-21T19:34:59.226Z,37.55
2019-02-21T19:37:27.787Z,35.67
2019-02-21T19:39:56.424Z,41.28
2019-02-21T19:42:25.079Z,39.78
2019-02-21T19:44:53.426Z,43.20
2019-02-21T19:47:21.716Z,39.55
2019-02-21T19:49:50.021Z,42.17
2019-02-21T19:52:18.420Z,43.90
2019-02-21T19:54:46.986Z,44.25
2019-02-21T19:57:15.302Z,45.50
2019-02-21T19:59:43.765Z,51.00
2019-02-21T20:02:12.093Z,52.05
2019-02-21T20:04:40.709Z,51.30
2019-02-21T20:07:09.034Z,56.77
2019-02-21T20:09:37.654Z,59.65
2019-02-21T20:12:05.983Z,62.10
2019-02-21T20:14:34.335Z,64.85
2019-02-21T20:17:02.665Z,61.80
2019-02-21T20:19:30.965Z,61.28
2019-02-21T20:21:59.554Z,67.90
2019-02-21T20:24:27.877Z,64.83
2019-02-21T20:26:56.184Z,59.35
2019-02-21T20:29:24.794Z,60.25
2019-02-21T20:31:53.199Z,65.62
2019-02-21T20:34:21.533Z,60.48
2019-02-21T20:36:51.391Z,63.00
2019-02-21T20:39:19.943Z,60.63
2019-02-21T20:41:48.257Z,55.30
2019-02-21T20:44:16.572Z,56.77
2019-02-21T20:46:44.912Z,55.37
2019-02-21T20:49:13.562Z,52.88
2019-02-21T20:51:41.864Z,49.27
2019-02-21T20:54:12.886Z,48.50
2019-02-21T20:56:40.563Z,48.17
2019-02-21T20:59:08.878Z,49.40
2019-02-21T21:01:37.505Z,50.23
2019-02-21T21:04:05.800Z,47.40
2019-02-21T21:06:34.475Z,48.35
2019-02-21T21:09:04.534Z,49.50
2019-02-21T21:11:32.847Z,50.63
2019-02-21T21:14:01.150Z,49.67
2019-02-21T21:16:29.549Z,49.85
2019-02-21T21:18:57.857Z,51.70
2019-02-21T21:21:26.182Z,50.43
2019-02-21T21:23:54.493Z,48.58
2019-02-21T21:26:22.817Z,51.65
2019-02-21T21:28:51.155Z,47.98
2019-02-21T21:31:19.804Z,48.55
2019-02-21T21:33:48.098Z,49.13
2019-02-21T21:36:16.492Z,50.03
2019-02-21T21:38:53.603Z,51.00
2019-02-21T21:41:14.907Z,50.52
2019-02-21T21:43:43.220Z,51.37
2019-02-21T21:46:11.545Z,53.68
2019-02-21T21:48:39.855Z,50.40
2019-02-21T21:51:08.153Z,52.17
2019-02-21T21:53:36.577Z,51.07
2019-02-21T21:56:04.956Z,50.75
2019-02-21T21:58:33.266Z,47.55
2019-02-21T22:01:01.561Z,51.15
2019-02-21T22:03:29.886Z,50.88
2019-02-21T22:05:58.190Z,50.52
2019-02-21T22:08:26.808Z,48.38
2019-02-21T22:10:55.115Z,50.70
2019-02-21T22:13:23.448Z,50.05
2019-02-21T22:15:51.760Z,52.85
2019-02-21T22:18:20.064Z,50.03
2019-02-21T22:20:48.395Z,50.00
2019-02-21T22:23:16.706Z,55.75
2019-02-21T22:25:45.025Z,48.65
2019-02-21T22:28:13.345Z,52.70
2019-02-21T22:30:41.664Z,50.35
2019-02-21T22:33:09.978Z,52.33
2019-02-21T22:35:38.399Z,51.85
2019-02-21T22:38:06.717Z,53.15
2019-02-21T22:40:35.042Z,54.15
2019-02-21T22:43:03.356Z,50.50
2019-02-21T22:45:31.699Z,49.03
2019-02-21T22:48:00.011Z,52.80
2019-02-21T22:50:28.624Z,53.77
2019-02-21T22:52:56.953Z,52.05
2019-02-21T22:55:25.263Z,53.25
2019-02-21T22:57:53.881Z,57.03
2019-02-21T23:00:38.511Z,56.60
2019-02-21T23:03:09.232Z,51.50
2019-02-21T23:05:49.447Z,55.78
2019-02-21T23:08:42.036Z,49.70
2019-02-21T23:11:10.695Z,55.73
2019-02-21T23:13:39.531Z,55.85
2019-02-21T23:16:07.937Z,58.60
2019-02-21T23:18:36.289Z,60.40
2019-02-21T23:21:04.842Z,54.00
2019-02-21T23:23:33.165Z,59.10
2019-02-21T23:26:01.723Z,58.27
2019-02-21T23:28:30.035Z,59.63
2019-02-21T23:30:58.703Z,58.50
2019-02-21T23:33:28.113Z,56.67
2019-02-21T23:35:56.396Z,59.83
2019-02-21T23:38:24.707Z,57.53
2019-02-21T23:40:53.008Z,57.88
2019-02-21T23:43:21.304Z,61.58
2019-02-21T23:45:49.625Z,57.10
2019-02-21T23:48:17.940Z,60.35
2019-02-21T23:50:46.265Z,57.65
2019-02-21T23:53:14.595Z,58.73
2019-02-21T23:55:43.203Z,56.90
2019-02-21T23:58:11.510Z,60.15
